Time;durP1;ratioP1;P1;durP2;ratioP2;P2;SDS_P1;SDS_P2;PMS_P1;PMS_P2;Temp;Humidity;BMP_temperature;BMP_pressure;BME280_temperature;BME280_humidity;BME280_pressure;Samples;Min_cycle;Max_cycle;Signal;HPM_P1;HPM_P2
2021/10/13 00:00:06;;;;;;;29.08;6.55;;;4.10;99.90;;;;;;5081437;28;20028;-58
2021/10/13 00:02:32;;;;;;;16.95;7.22;;;4.10;99.90;;;;;;5080681;28;20043;-59
2021/10/13 00:04:58;;;;;;;24.35;6.90;;;4.10;99.90;;;;;;5087276;28;20054;-58
2021/10/13 00:07:23;;;;;;;19.58;7.93;;;4.10;99.90;;;;;;5069932;28;20114;-59
2021/10/13 00:09:49;;;;;;;84.88;9.82;;;4.10;99.90;;;;;;5083137;28;20024;-56
2021/10/13 00:12:14;;;;;;;42.80;8.50;;;4.10;99.90;;;;;;5083921;28;20389;-59
2021/10/13 00:14:40;;;;;;;20.40;8.55;;;4.10;99.90;;;;;;5067758;28;20035;-56
2021/10/13 00:17:06;;;;;;;21.70;8.52;;;4.10;99.90;;;;;;5078494;28;20060;-58
2021/10/13 00:19:32;;;;;;;29.55;9.18;;;4.10;99.90;;;;;;5073230;28;20024;-58
2021/10/13 00:21:58;;;;;;;16.75;8.18;;;4.20;99.90;;;;;;5077883;28;20040;-58
2021/10/13 00:24:23;;;;;;;19.08;8.65;;;4.10;99.90;;;;;;5078174;28;20077;-58
2021/10/13 00:26:49;;;;;;;27.63;9.25;;;4.20;99.90;;;;;;5079105;28;20036;-59
2021/10/13 00:29:14;;;;;;;14.50;8.10;;;4.10;99.90;;;;;;5080361;28;20107;-58
2021/10/13 00:31:40;;;;;;;23.25;8.70;;;4.10;99.90;;;;;;5075825;28;20432;-58
2021/10/13 00:34:06;;;;;;;17.30;8.43;;;4.10;99.90;;;;;;5072745;28;20033;-58
2021/10/13 00:36:31;;;;;;;14.93;7.68;;;4.10;99.90;;;;;;5073412;28;20033;-59
2021/10/13 00:38:57;;;;;;;13.02;5.72;;;4.10;99.90;;;;;;5077838;28;20363;-57
2021/10/13 00:41:22;;;;;;;16.83;5.78;;;4.10;99.90;;;;;;5077831;28;20028;-61
2021/10/13 00:43:48;;;;;;;21.65;6.10;;;4.00;99.90;;;;;;5074605;28;20398;-59
2021/10/13 00:46:14;;;;;;;10.40;5.15;;;4.00;99.90;;;;;;5077232;28;20016;-59
2021/10/13 00:48:40;;;;;;;8.82;5.43;;;4.00;99.90;;;;;;5085034;28;20035;-58
2021/10/13 00:51:06;;;;;;;10.68;5.97;;;3.90;99.90;;;;;;5077815;28;20720;-58
2021/10/13 00:53:31;;;;;;;9.15;5.57;;;3.90;99.90;;;;;;5081462;28;20121;-58
2021/10/13 00:55:57;;;;;;;13.75;5.05;;;3.80;99.90;;;;;;5079602;28;20027;-58
2021/10/13 00:58:24;;;;;;;6.55;4.95;;;3.80;99.90;;;;;;5086357;28;20166;-58
2021/10/13 01:01:01;;;;;;;10.73;5.32;;;3.80;99.90;;;;;;5080726;28;20024;-57
2021/10/13 01:03:36;;;;;;;6.38;4.47;;;3.80;99.90;;;;;;5084015;28;20035;-56
2021/10/13 01:06:25;;;;;;;7.72;5.18;;;3.80;99.90;;;;;;5083897;28;20084;-57
2021/10/13 01:09:07;;;;;;;9.90;5.35;;;3.70;99.90;;;;;;5086123;28;20402;-58
2021/10/13 01:11:45;;;;;;;14.80;6.38;;;3.70;99.90;;;;;;5081182;28;20035;-58
2021/10/13 01:14:29;;;;;;;32.97;5.40;;;3.70;99.90;;;;;;5081885;28;20436;-59
2021/10/13 01:17:12;;;;;;;69.40;7.63;;;3.70;99.90;;;;;;5075295;28;20083;-58
2021/10/13 01:19:47;;;;;;;85.85;8.10;;;3.70;99.90;;;;;;5078041;28;20039;-55
2021/10/13 01:22:49;;;;;;;43.58;4.95;;;3.70;99.90;;;;;;5081051;28;20050;-57
2021/10/13 01:25:30;;;;;;;19.48;5.32;;;3.60;99.90;;;;;;5079597;28;20028;-59
2021/10/13 01:28:02;;;;;;;25.50;5.10;;;3.60;99.90;;;;;;5079446;28;20028;-57
2021/10/13 01:30:44;;;;;;;26.33;6.82;;;3.70;99.90;;;;;;5081962;28;20032;-58
2021/10/13 01:33:42;;;;;;;20.48;7.53;;;3.70;99.90;;;;;;5084125;28;20063;-59
2021/10/13 01:36:14;;;;;;;16.48;7.60;;;3.60;99.90;;;;;;5086403;28;20575;-58
2021/10/13 01:38:43;;;;;;;13.85;7.22;;;3.60;99.90;;;;;;5092398;28;20028;-58
2021/10/13 01:41:11;;;;;;;28.02;8.93;;;3.60;99.90;;;;;;5087791;28;20028;-58
2021/10/13 01:43:40;;;;;;;74.30;10.93;;;3.60;99.90;;;;;;5091525;28;20034;-59
2021/10/13 01:46:07;;;;;;;63.83;10.32;;;3.70;99.90;;;;;;5082149;28;20085;-60
2021/10/13 01:48:35;;;;;;;95.72;11.25;;;3.70;99.90;;;;;;5089186;28;20028;-59
2021/10/13 01:51:01;;;;;;;91.15;9.55;;;3.70;99.90;;;;;;5087666;28;20028;-59
2021/10/13 01:53:28;;;;;;;70.47;9.93;;;3.80;99.90;;;;;;5080066;28;20043;-60
2021/10/13 01:55:57;;;;;;;92.75;10.18;;;3.90;99.90;;;;;;5090883;28;20066;-57
2021/10/13 01:58:24;;;;;;;100.90;11.63;;;4.00;99.90;;;;;;5081360;28;20501;-59
2021/10/13 02:00:51;;;;;;;118.45;10.35;;;4.00;99.90;;;;;;5083690;28;20085;-59
2021/10/13 02:03:23;;;;;;;80.72;10.77;;;4.10;99.90;;;;;;5084448;28;20028;-57
2021/10/13 02:05:55;;;;;;;54.10;10.00;;;4.20;99.90;;;;;;5080493;28;20063;-58
2021/10/13 02:08:22;;;;;;;100.60;11.10;;;4.20;99.90;;;;;;5077226;28;20025;-58
2021/10/13 02:10:49;;;;;;;82.47;11.20;;;4.30;99.90;;;;;;5078196;28;20689;-59
2021/10/13 02:13:18;;;;;;;105.60;9.60;;;4.40;99.90;;;;;;5080303;28;20111;-58
2021/10/13 02:15:46;;;;;;;58.42;8.68;;;4.40;99.90;;;;;;5058810;28;20690;-59
2021/10/13 02:18:23;;;;;;;69.22;7.95;;;4.50;99.90;;;;;;5085223;28;20016;-59
2021/10/13 02:20:49;;;;;;;96.18;10.07;;;4.60;99.90;;;;;;5078691;28;20605;-59
2021/10/13 02:23:17;;;;;;;135.43;9.88;;;4.60;99.90;;;;;;5086742;28;20047;-58
2021/10/13 02:25:48;;;;;;;89.45;8.65;;;4.60;99.90;;;;;;5082449;28;20058;-60
2021/10/13 02:28:21;;;;;;;90.95;8.32;;;4.50;99.90;;;;;;5090676;28;20020;-59
2021/10/13 02:30:46;;;;;;;181.20;9.85;;;4.50;99.90;;;;;;5080346;28;20028;-59
2021/10/13 02:33:12;;;;;;;161.93;9.48;;;4.60;99.90;;;;;;5089896;28;20489;-59
2021/10/13 02:35:37;;;;;;;167.70;10.63;;;4.50;99.90;;;;;;5088116;28;20025;-60
2021/10/13 02:38:04;;;;;;;203.85;12.38;;;4.50;99.90;;;;;;5088766;28;20020;-59
2021/10/13 02:40:29;;;;;;;191.40;12.70;;;4.50;99.90;;;;;;5085521;28;20501;-60
2021/10/13 02:42:55;;;;;;;144.90;9.32;;;4.60;99.90;;;;;;5088367;28;20035;-58
2021/10/13 02:45:21;;;;;;;76.15;8.18;;;4.60;99.90;;;;;;5084970;28;20020;-58
2021/10/13 02:48:02;;;;;;;129.27;9.73;;;4.60;99.90;;;;;;5089769;28;20482;-59
2021/10/13 02:50:33;;;;;;;143.07;8.38;;;4.60;99.90;;;;;;5082728;28;20489;-58
2021/10/13 02:53:16;;;;;;;123.82;7.40;;;4.60;99.90;;;;;;5081710;28;20032;-58
2021/10/13 02:55:51;;;;;;;84.35;7.75;;;4.60;99.90;;;;;;5086752;28;20054;-59
2021/10/13 02:58:32;;;;;;;104.75;8.43;;;4.50;99.90;;;;;;5081750;28;20035;-58
2021/10/13 03:01:01;;;;;;;84.13;7.95;;;4.50;99.90;;;;;;5086799;28;20040;-58
2021/10/13 03:03:38;;;;;;;77.68;8.40;;;4.50;99.90;;;;;;5089466;28;20024;-59
2021/10/13 03:06:05;;;;;;;88.38;9.60;;;4.50;99.90;;;;;;5080931;28;20528;-59
2021/10/13 03:08:35;;;;;;;91.05;7.35;;;4.50;99.90;;;;;;5081894;28;20032;-57
2021/10/13 03:11:02;;;;;;;96.22;8.80;;;4.50;99.90;;;;;;5084584;28;20732;-60
2021/10/13 03:13:34;;;;;;;78.57;7.90;;;4.60;99.90;;;;;;5082753;28;20056;-59
2021/10/13 03:16:04;;;;;;;88.95;8.73;;;4.60;99.90;;;;;;5063335;28;20123;-59
2021/10/13 03:18:31;;;;;;;48.47;6.43;;;4.60;99.90;;;;;;5074506;28;20547;-59
2021/10/13 03:20:57;;;;;;;127.93;8.48;;;4.60;99.90;;;;;;5087026;28;20032;-60
2021/10/13 03:23:24;;;;;;;108.75;7.13;;;4.60;99.90;;;;;;5076792;28;20032;-59
2021/10/13 03:25:51;;;;;;;68.60;7.75;;;4.70;99.90;;;;;;5083267;28;20050;-57
2021/10/13 03:28:17;;;;;;;104.28;7.25;;;4.60;99.90;;;;;;5079028;28;20486;-60
2021/10/13 03:30:44;;;;;;;87.05;7.45;;;4.70;99.90;;;;;;5080648;28;20027;-59
2021/10/13 03:33:13;;;;;;;55.35;6.15;;;4.70;99.90;;;;;;5084576;28;20082;-58
2021/10/13 03:35:39;;;;;;;84.20;6.35;;;4.70;99.90;;;;;;5081375;28;20047;-59
2021/10/13 03:38:05;;;;;;;94.07;7.00;;;4.80;99.90;;;;;;5085488;28;20515;-60
2021/10/13 03:40:33;;;;;;;107.35;9.23;;;4.80;99.90;;;;;;5083016;28;20028;-60
2021/10/13 03:42:59;;;;;;;80.47;8.48;;;4.80;99.90;;;;;;5075619;28;20405;-56
2021/10/13 03:45:25;;;;;;;69.20;6.97;;;4.80;99.90;;;;;;5079109;28;20028;-59
2021/10/13 03:47:52;;;;;;;116.13;8.02;;;4.80;99.90;;;;;;5081405;28;20028;-59
2021/10/13 03:50:19;;;;;;;46.88;7.75;;;4.80;99.90;;;;;;5078539;28;20039;-60
2021/10/13 03:52:45;;;;;;;45.00;7.10;;;4.80;99.90;;;;;;5078667;28;20054;-60
2021/10/13 03:55:14;;;;;;;43.88;8.95;;;4.90;99.90;;;;;;5082024;28;20020;-59
2021/10/13 03:57:40;;;;;;;34.05;8.57;;;4.90;99.90;;;;;;5088874;28;20028;-58
2021/10/13 04:00:09;;;;;;;33.95;7.72;;;5.00;99.90;;;;;;5084965;28;20389;-60
2021/10/13 04:02:35;;;;;;;23.60;7.60;;;5.00;99.90;;;;;;5077883;28;20066;-59
2021/10/13 04:05:00;;;;;;;17.42;6.18;;;5.10;99.90;;;;;;5078689;28;20032;-58
2021/10/13 04:07:27;;;;;;;28.20;6.70;;;5.10;99.90;;;;;;5085350;28;20170;-59
2021/10/13 04:09:53;;;;;;;20.27;6.57;;;5.20;99.90;;;;;;5087974;28;20035;-59
2021/10/13 04:12:18;;;;;;;13.07;6.25;;;5.20;99.90;;;;;;5083525;28;20424;-59
2021/10/13 04:14:44;;;;;;;41.05;10.43;;;5.20;99.90;;;;;;5082459;28;20020;-60
2021/10/13 04:17:09;;;;;;;84.68;11.57;;;5.20;99.90;;;;;;5064334;28;20108;-60
2021/10/13 04:19:35;;;;;;;60.35;11.07;;;5.20;99.90;;;;;;5085164;28;20039;-59
2021/10/13 04:22:00;;;;;;;163.38;12.98;;;5.20;99.90;;;;;;5078239;28;20020;-59
2021/10/13 04:24:26;;;;;;;118.82;10.23;;;5.30;99.90;;;;;;5088283;28;20028;-59
2021/10/13 04:26:52;;;;;;;205.90;11.80;;;5.30;99.90;;;;;;5066176;28;20028;-58
2021/10/13 04:29:17;;;;;;;107.60;10.65;;;5.20;99.90;;;;;;5084761;28;20107;-59
2021/10/13 04:31:43;;;;;;;96.82;8.73;;;5.30;99.90;;;;;;5079965;28;20561;-59
2021/10/13 04:34:09;;;;;;;86.88;10.77;;;5.30;99.90;;;;;;5086124;28;20535;-58
2021/10/13 04:36:34;;;;;;;134.50;10.13;;;5.30;99.90;;;;;;5084061;28;20042;-59
2021/10/13 04:39:00;;;;;;;88.55;10.38;;;5.30;99.90;;;;;;5085869;28;20693;-60
2021/10/13 04:41:25;;;;;;;79.05;10.55;;;5.30;99.90;;;;;;5080248;28;20592;-59
2021/10/13 04:43:51;;;;;;;65.07;11.05;;;5.30;99.90;;;;;;5084723;28;20436;-58
2021/10/13 04:46:17;;;;;;;71.88;9.55;;;5.40;99.90;;;;;;5085852;28;20032;-59
2021/10/13 04:48:42;;;;;;;43.53;8.65;;;5.40;99.90;;;;;;5084516;28;20512;-57
2021/10/13 04:51:08;;;;;;;42.22;10.50;;;5.40;99.90;;;;;;5082410;28;20024;-58
2021/10/13 04:53:33;;;;;;;50.78;10.00;;;5.40;99.90;;;;;;5082588;28;20085;-56
2021/10/13 04:55:59;;;;;;;71.35;11.05;;;5.40;99.90;;;;;;5082031;28;20028;-58
2021/10/13 04:58:24;;;;;;;39.97;9.93;;;5.40;99.90;;;;;;5084536;28;20085;-57
2021/10/13 05:00:50;;;;;;;39.13;10.15;;;5.40;99.90;;;;;;5085541;28;20049;-59
2021/10/13 05:03:16;;;;;;;37.00;11.40;;;5.40;99.90;;;;;;5085944;28;20016;-59
2021/10/13 05:05:41;;;;;;;49.10;12.82;;;5.50;99.90;;;;;;5084673;28;20031;-56
2021/10/13 05:08:07;;;;;;;41.60;11.35;;;5.50;99.90;;;;;;5082130;28;20118;-59
2021/10/13 05:10:33;;;;;;;56.17;14.27;;;5.50;99.90;;;;;;5080993;28;20245;-59
2021/10/13 05:12:59;;;;;;;38.10;14.88;;;5.50;99.90;;;;;;5078040;28;20074;-58
2021/10/13 05:15:24;;;;;;;46.53;21.00;;;5.50;99.90;;;;;;5082077;28;20032;-58
2021/10/13 05:17:50;;;;;;;80.50;21.70;;;5.60;99.90;;;;;;5083188;28;20701;-60
2021/10/13 05:20:16;;;;;;;50.00;22.98;;;5.50;99.90;;;;;;5084570;28;20556;-59
2021/10/13 05:22:41;;;;;;;66.13;14.05;;;5.50;99.90;;;;;;5087176;28;20043;-59
2021/10/13 05:25:08;;;;;;;48.20;12.18;;;5.60;99.90;;;;;;5086304;28;20031;-60
2021/10/13 05:27:33;;;;;;;38.55;11.50;;;5.60;99.90;;;;;;5062171;28;20044;-59
2021/10/13 05:29:59;;;;;;;56.97;10.68;;;5.60;99.90;;;;;;5083166;28;20016;-60
2021/10/13 05:32:24;;;;;;;88.30;12.27;;;5.70;99.90;;;;;;5080492;28;20115;-60
2021/10/13 05:34:50;;;;;;;77.05;12.27;;;5.60;99.90;;;;;;5085240;28;20558;-58
2021/10/13 05:37:16;;;;;;;161.43;14.60;;;5.70;99.90;;;;;;5082883;28;20087;-60
2021/10/13 05:39:41;;;;;;;44.05;10.73;;;5.70;99.90;;;;;;5084629;28;20024;-59
2021/10/13 05:42:07;;;;;;;28.95;11.00;;;5.60;99.90;;;;;;5084757;28;20046;-60
2021/10/13 05:44:33;;;;;;;31.42;11.18;;;5.60;99.90;;;;;;5086108;28;20040;-60
2021/10/13 05:46:58;;;;;;;35.85;11.73;;;5.70;99.90;;;;;;5083383;28;20042;-60
2021/10/13 05:49:24;;;;;;;34.70;11.77;;;5.70;99.90;;;;;;5083855;28;20445;-59
2021/10/13 05:51:49;;;;;;;35.67;11.85;;;5.70;99.90;;;;;;5075279;28;20036;-60
2021/10/13 05:54:15;;;;;;;37.67;14.93;;;5.70;99.90;;;;;;5085449;28;20024;-60
2021/10/13 05:56:40;;;;;;;47.13;12.77;;;5.70;99.90;;;;;;5022582;28;20039;-59
2021/10/13 05:59:06;;;;;;;32.50;12.95;;;5.80;99.90;;;;;;5075919;28;20028;-59
2021/10/13 06:01:32;;;;;;;31.35;10.88;;;5.80;99.90;;;;;;5075126;28;20036;-59
2021/10/13 06:03:58;;;;;;;32.40;11.95;;;5.80;99.90;;;;;;5085542;28;20123;-58
2021/10/13 06:06:23;;;;;;;66.18;14.20;;;5.90;99.90;;;;;;5074843;28;20777;-58
2021/10/13 06:08:49;;;;;;;95.30;13.50;;;5.80;99.90;;;;;;5077510;28;20485;-59
2021/10/13 06:11:14;;;;;;;50.38;11.65;;;5.80;99.90;;;;;;5078081;28;20140;-60
2021/10/13 06:13:41;;;;;;;29.50;11.25;;;5.80;99.90;;;;;;5074232;28;20024;-60
2021/10/13 06:16:10;;;;;;;33.22;12.40;;;5.90;99.90;;;;;;5088104;28;20024;-60
2021/10/13 06:18:37;;;;;;;34.08;12.52;;;5.90;99.90;;;;;;5084267;28;20035;-59
2021/10/13 06:21:03;;;;;;;40.88;14.80;;;5.90;99.90;;;;;;5083694;28;20051;-59
2021/10/13 06:23:29;;;;;;;43.42;14.40;;;6.00;99.90;;;;;;5081019;28;20016;-57
2021/10/13 06:25:55;;;;;;;35.25;12.70;;;6.00;99.90;;;;;;5078382;28;20040;-58
2021/10/13 06:28:20;;;;;;;34.63;13.05;;;6.00;99.90;;;;;;5079904;28;20074;-58
2021/10/13 06:30:46;;;;;;;27.00;12.80;;;6.10;99.90;;;;;;5084898;28;20116;-60
2021/10/13 06:33:12;;;;;;;34.58;13.95;;;6.20;99.90;;;;;;5082439;28;20031;-59
2021/10/13 06:35:37;;;;;;;36.08;12.75;;;6.20;99.90;;;;;;5087836;28;20024;-60
2021/10/13 06:38:03;;;;;;;39.35;12.52;;;6.20;99.90;;;;;;5084958;28;20024;-60
2021/10/13 06:40:29;;;;;;;37.47;13.73;;;6.30;99.90;;;;;;5083717;28;20024;-59
2021/10/13 06:42:54;;;;;;;28.33;13.40;;;6.30;99.90;;;;;;5087116;28;20028;-59
2021/10/13 06:45:20;;;;;;;36.22;14.63;;;6.30;99.90;;;;;;5087067;28;20508;-60
2021/10/13 06:47:46;;;;;;;38.88;17.30;;;6.40;99.90;;;;;;5079509;28;20078;-60
2021/10/13 06:50:12;;;;;;;40.78;15.20;;;6.40;99.90;;;;;;5083855;28;20231;-60
2021/10/13 06:52:38;;;;;;;32.25;15.20;;;6.40;99.90;;;;;;5087360;28;20073;-60
2021/10/13 06:55:05;;;;;;;35.25;16.10;;;6.50;99.90;;;;;;5078474;28;20021;-60
2021/10/13 06:57:31;;;;;;;23.23;12.05;;;6.50;99.90;;;;;;5087480;28;20173;-59
2021/10/13 06:59:56;;;;;;;38.70;16.60;;;6.50;99.90;;;;;;5088307;28;20554;-60
2021/10/13 07:02:22;;;;;;;24.50;12.60;;;6.70;99.90;;;;;;5089253;28;20186;-60
2021/10/13 07:04:48;;;;;;;31.38;15.00;;;6.70;99.90;;;;;;5086616;28;20038;-59
2021/10/13 07:07:13;;;;;;;23.67;12.45;;;6.80;99.90;;;;;;5083379;28;20077;-59
2021/10/13 07:09:39;;;;;;;17.75;11.45;;;6.80;99.90;;;;;;5086197;28;20028;-59
2021/10/13 07:12:05;;;;;;;35.08;17.10;;;6.90;99.90;;;;;;5088784;28;20637;-59
2021/10/13 07:14:30;;;;;;;32.53;15.20;;;6.80;99.90;;;;;;5075232;28;20039;-59
2021/10/13 07:16:56;;;;;;;30.00;14.82;;;6.90;99.90;;;;;;5089460;28;20564;-60
2021/10/13 07:19:21;;;;;;;21.42;13.18;;;7.00;99.90;;;;;;5090038;28;20031;-59
2021/10/13 07:21:47;;;;;;;29.00;16.13;;;7.10;99.90;;;;;;5086151;28;20020;-56
2021/10/13 07:24:13;;;;;;;26.83;11.88;;;7.20;99.90;;;;;;5080006;28;20033;-60
2021/10/13 07:26:41;;;;;;;22.52;10.30;;;7.40;99.90;;;;;;5083823;28;20035;-60
2021/10/13 07:29:08;;;;;;;23.48;11.02;;;7.50;99.90;;;;;;5071082;28;20036;-59
2021/10/13 07:31:34;;;;;;;33.58;13.18;;;7.50;99.90;;;;;;5089754;28;20026;-60
2021/10/13 07:33:59;;;;;;;20.30;11.60;;;7.50;99.90;;;;;;5080418;28;20024;-59
2021/10/13 07:36:25;;;;;;;19.77;11.73;;;7.50;99.90;;;;;;5080354;28;20106;-59
2021/10/13 07:38:51;;;;;;;20.58;10.82;;;7.40;99.90;;;;;;5085551;28;20028;-60
2021/10/13 07:41:18;;;;;;;19.90;12.30;;;7.40;99.90;;;;;;5088549;28;20028;-60
2021/10/13 07:43:45;;;;;;;27.42;12.02;;;7.40;99.90;;;;;;5082301;28;20570;-58
2021/10/13 07:46:12;;;;;;;17.75;11.38;;;7.50;99.90;;;;;;5077476;28;20028;-60
2021/10/13 07:48:38;;;;;;;19.10;11.05;;;7.40;99.90;;;;;;5084303;28;20081;-59
2021/10/13 07:51:04;;;;;;;22.95;12.45;;;7.50;99.90;;;;;;5083685;28;20028;-60
2021/10/13 07:53:29;;;;;;;32.78;15.80;;;7.40;99.90;;;;;;5082541;28;20107;-60
2021/10/13 07:55:55;;;;;;;42.45;19.00;;;7.40;99.90;;;;;;5082646;28;20031;-59
2021/10/13 07:58:20;;;;;;;62.63;26.58;;;7.40;99.90;;;;;;5083430;28;20470;-60
2021/10/13 08:00:46;;;;;;;56.90;24.88;;;7.60;99.90;;;;;;5080864;28;20036;-59
2021/10/13 08:03:12;;;;;;;60.70;25.20;;;7.70;99.90;;;;;;5080324;28;20027;-60
2021/10/13 08:05:40;;;;;;;57.78;24.10;;;7.80;99.90;;;;;;5075585;28;20032;-60
2021/10/13 08:08:06;;;;;;;62.25;28.67;;;7.90;99.90;;;;;;5086890;28;20524;-60
2021/10/13 08:10:32;;;;;;;54.40;25.42;;;8.10;99.90;;;;;;5080123;28;20071;-60
2021/10/13 08:12:59;;;;;;;59.55;25.35;;;8.20;99.90;;;;;;5084694;28;20047;-60
2021/10/13 08:15:27;;;;;;;45.08;24.75;;;8.30;99.90;;;;;;5083413;28;20047;-60
2021/10/13 08:17:53;;;;;;;56.97;24.02;;;8.30;99.90;;;;;;5086703;28;20047;-60
2021/10/13 08:20:19;;;;;;;39.28;21.70;;;8.20;99.90;;;;;;5083632;28;20047;-60
2021/10/13 08:22:46;;;;;;;32.95;16.55;;;8.30;99.90;;;;;;5081301;28;20033;-60
2021/10/13 08:25:12;;;;;;;32.35;16.27;;;8.30;99.90;;;;;;5082613;28;20043;-60
2021/10/13 08:27:38;;;;;;;32.92;14.63;;;8.40;99.90;;;;;;5067117;28;20048;-60
2021/10/13 08:30:05;;;;;;;32.08;20.10;;;8.50;99.90;;;;;;5074521;28;20074;-58
2021/10/13 08:32:31;;;;;;;39.55;16.02;;;8.50;99.90;;;;;;5074916;28;20514;-60
2021/10/13 08:34:56;;;;;;;29.25;19.30;;;8.60;99.90;;;;;;5086958;28;20043;-60
2021/10/13 08:37:22;;;;;;;40.90;22.30;;;8.50;99.90;;;;;;5087812;28;20302;-59
2021/10/13 08:39:47;;;;;;;36.42;21.02;;;8.50;99.90;;;;;;5083153;28;20035;-60
2021/10/13 08:42:14;;;;;;;37.65;21.10;;;8.50;99.90;;;;;;5083870;28;20631;-60
2021/10/13 08:44:43;;;;;;;41.05;21.63;;;8.50;99.90;;;;;;5087633;28;20032;-60
2021/10/13 08:47:12;;;;;;;39.90;21.60;;;8.70;99.90;;;;;;5083006;28;20054;-59
2021/10/13 08:49:40;;;;;;;36.40;21.67;;;8.60;99.90;;;;;;5075148;28;20471;-60
2021/10/13 08:52:13;;;;;;;38.83;18.70;;;8.60;99.90;;;;;;5081432;28;20054;-58
2021/10/13 08:54:39;;;;;;;121.55;57.00;;;8.70;99.90;;;;;;5082258;28;20016;-60
2021/10/13 08:57:22;;;;;;;70.53;34.22;;;8.70;99.90;;;;;;5083509;28;20441;-59
2021/10/13 08:59:50;;;;;;;49.17;26.17;;;8.90;99.90;;;;;;5086254;28;20779;-59
2021/10/13 09:02:35;;;;;;;65.85;33.15;;;8.90;99.90;;;;;;5082154;28;20062;-61
2021/10/13 09:05:04;;;;;;;57.30;30.13;;;9.00;99.90;;;;;;5082200;28;20049;-60
2021/10/13 09:07:30;;;;;;;50.38;24.45;;;9.10;99.90;;;;;;5086608;28;20031;-60
2021/10/13 09:09:56;;;;;;;34.90;20.98;;;9.30;99.90;;;;;;5068643;28;20039;-60
2021/10/13 09:12:36;;;;;;;32.65;20.02;;;9.40;99.90;;;;;;5081096;28;20715;-59
2021/10/13 09:15:05;;;;;;;40.88;23.30;;;9.40;99.90;;;;;;5080619;28;20024;-60
2021/10/13 09:17:30;;;;;;;46.88;22.27;;;9.40;99.90;;;;;;5088396;28;20024;-60
2021/10/13 09:19:56;;;;;;;42.05;24.15;;;9.50;99.90;;;;;;5081383;28;20032;-61
2021/10/13 09:22:21;;;;;;;34.92;22.75;;;9.70;99.90;;;;;;5083277;28;20024;-60
2021/10/13 09:24:50;;;;;;;38.72;22.52;;;9.70;99.90;;;;;;5084548;28;20090;-59
2021/10/13 09:27:30;;;;;;;37.03;23.77;;;9.90;99.90;;;;;;5076647;28;20757;-61
2021/10/13 09:30:10;;;;;;;41.88;23.27;;;10.00;99.90;;;;;;5059585;28;20054;-60
2021/10/13 09:32:45;;;;;;;42.88;22.80;;;10.00;99.90;;;;;;5084124;28;20062;-60
2021/10/13 09:35:11;;;;;;;42.63;28.15;;;10.20;99.90;;;;;;5081658;28;20749;-59
2021/10/13 09:37:45;;;;;;;45.15;27.58;;;10.20;99.90;;;;;;5084734;28;20023;-60
2021/10/13 09:40:11;;;;;;;42.63;24.67;;;10.30;99.90;;;;;;5080372;28;20020;-60
2021/10/13 09:42:38;;;;;;;34.15;21.45;;;10.50;99.90;;;;;;5082910;28;20024;-61
2021/10/13 09:45:05;;;;;;;37.88;21.90;;;10.80;99.90;;;;;;5079975;28;20515;-60
2021/10/13 09:47:33;;;;;;;44.50;22.20;;;10.70;99.90;;;;;;5085270;28;20028;-60
2021/10/13 09:49:59;;;;;;;39.50;23.48;;;10.70;99.90;;;;;;5082875;28;20111;-61
2021/10/13 09:52:27;;;;;;;36.67;22.60;;;10.60;99.90;;;;;;5084267;28;20077;-60
2021/10/13 09:55:13;;;;;;;39.85;23.20;;;10.60;99.90;;;;;;5083822;28;20091;-61
2021/10/13 09:57:44;;;;;;;39.80;24.60;;;10.40;99.90;;;;;;5085154;28;20028;-60
2021/10/13 10:00:14;;;;;;;41.67;25.17;;;10.40;99.90;;;;;;5086926;28;20025;-60
2021/10/13 10:02:51;;;;;;;41.03;25.95;;;10.40;99.90;;;;;;5085016;28;20040;-59
2021/10/13 10:05:29;;;;;;;36.60;24.80;;;10.50;99.90;;;;;;5075565;28;20044;-59
2021/10/13 10:08:03;;;;;;;38.63;25.17;;;10.70;99.90;;;;;;5085525;28;20111;-60
2021/10/13 10:10:30;;;;;;;39.13;24.45;;;10.70;99.90;;;;;;5085786;28;20036;-60
2021/10/13 10:13:01;;;;;;;45.13;24.00;;;10.90;99.90;;;;;;5082276;28;20039;-61
2021/10/13 10:15:38;;;;;;;40.40;23.08;;;11.30;99.90;;;;;;5084494;28;20080;-60
2021/10/13 10:18:23;;;;;;;41.65;25.80;;;11.60;99.90;;;;;;5080285;28;20059;-60
2021/10/13 10:20:50;;;;;;;35.50;23.30;;;11.80;99.90;;;;;;5086446;28;20032;-60
2021/10/13 10:23:30;;;;;;;33.05;24.17;;;11.60;99.90;;;;;;5085218;28;20032;-60
2021/10/13 10:25:59;;;;;;;34.88;22.98;;;11.70;99.90;;;;;;5083939;28;20035;-60
2021/10/13 10:29:03;;;;;;;32.83;21.40;;;11.90;99.90;;;;;;5066083;28;20581;-60
2021/10/13 10:31:29;;;;;;;30.33;19.80;;;12.20;99.90;;;;;;5086186;28;20054;-61
2021/10/13 10:34:03;;;;;;;29.70;20.42;;;12.00;99.90;;;;;;5080984;28;20108;-60
2021/10/13 10:36:35;;;;;;;28.55;21.05;;;11.70;99.90;;;;;;5086868;28;20489;-60
2021/10/13 10:39:15;;;;;;;29.15;18.55;;;11.80;99.90;;;;;;5086426;28;20028;-58
2021/10/13 10:41:53;;;;;;;31.35;19.77;;;12.00;99.90;;;;;;5086132;28;20470;-60
2021/10/13 10:44:31;;;;;;;30.70;18.00;;;12.10;99.90;;;;;;5084175;28;20029;-60
2021/10/13 10:47:09;;;;;;;25.25;18.23;;;12.30;99.90;;;;;;5087038;28;20039;-60
2021/10/13 10:49:47;;;;;;;29.02;18.85;;;12.60;99.90;;;;;;5083982;28;20401;-60
2021/10/13 10:52:14;;;;;;;26.80;16.13;;;12.70;99.90;;;;;;5083885;28;20027;-60
2021/10/13 10:54:49;;;;;;;28.05;18.80;;;12.60;99.90;;;;;;5081362;28;20161;-61
2021/10/13 10:57:47;;;;;;;20.67;16.23;;;12.50;99.90;;;;;;5080739;28;20020;-60
2021/10/13 11:00:21;;;;;;;24.30;16.77;;;12.60;99.90;;;;;;5085041;28;20020;-58
2021/10/13 11:02:48;;;;;;;22.10;16.27;;;12.50;99.90;;;;;;5077604;28;20034;-61
2021/10/13 11:05:14;;;;;;;21.80;16.60;;;12.60;99.90;;;;;;5080542;28;20392;-60
2021/10/13 11:07:42;;;;;;;24.50;17.67;;;12.80;99.90;;;;;;5089133;28;20099;-60
2021/10/13 11:10:12;;;;;;;23.85;17.58;;;12.80;99.90;;;;;;5080148;28;20094;-60
2021/10/13 11:12:49;;;;;;;23.67;17.13;;;13.00;99.90;;;;;;5090307;28;20032;-59
2021/10/13 11:15:16;;;;;;;29.90;17.33;;;13.00;99.90;;;;;;5085814;28;20404;-60
2021/10/13 11:17:42;;;;;;;20.90;15.73;;;13.10;99.90;;;;;;5086896;28;20024;-60
2021/10/13 11:20:13;;;;;;;19.95;15.57;;;13.30;99.90;;;;;;5089161;28;20031;-60
2021/10/13 11:22:39;;;;;;;25.40;15.13;;;13.30;99.90;;;;;;5085923;28;20081;-59
2021/10/13 11:25:16;;;;;;;27.48;16.73;;;12.90;99.90;;;;;;5087259;28;20032;-61
2021/10/13 11:27:42;;;;;;;18.20;14.32;;;12.90;99.90;;;;;;5068831;28;20043;-60
2021/10/13 11:30:16;;;;;;;20.90;14.43;;;13.00;99.90;;;;;;5087250;28;20032;-60
2021/10/13 11:32:42;;;;;;;;;;;12.70;99.90;;;;;;5067610;28;20024;-60
2021/10/13 11:35:08;;;;;;;26.33;15.80;;;12.80;99.90;;;;;;5086325;28;19915;-60
2021/10/13 11:37:34;;;;;;;21.17;13.07;;;12.80;99.90;;;;;;5078528;28;20066;-60
2021/10/13 11:39:59;;;;;;;15.38;11.57;;;13.00;99.90;;;;;;5081933;28;20034;-60
2021/10/13 11:42:27;;;;;;;26.35;11.55;;;13.10;99.90;;;;;;5073327;28;20108;-60
2021/10/13 11:44:57;;;;;;;14.02;10.43;;;13.10;99.90;;;;;;5086395;28;20107;-60
2021/10/13 11:47:36;;;;;;;18.42;12.30;;;13.10;99.90;;;;;;5085317;28;20032;-58
2021/10/13 11:50:11;;;;;;;21.30;13.15;;;13.00;99.90;;;;;;5084829;28;20921;-60
2021/10/13 11:52:40;;;;;;;21.30;12.13;;;12.80;99.90;;;;;;5084570;28;20064;-60
2021/10/13 11:55:10;;;;;;;68.10;49.90;;;13.00;99.90;;;;;;5082730;28;20040;-60
2021/10/13 11:57:38;;;;;;;28.73;16.80;;;12.80;99.90;;;;;;5079575;28;20020;-60
2021/10/13 12:00:30;;;;;;;16.17;11.85;;;12.70;99.90;;;;;;5083334;28;20438;-59
2021/10/13 12:03:05;;;;;;;18.95;10.98;;;12.80;99.90;;;;;;5086081;28;20024;-60
2021/10/13 12:05:54;;;;;;;18.45;11.00;;;12.60;99.90;;;;;;5084774;28;20497;-60
2021/10/13 12:08:29;;;;;;;18.45;9.38;;;12.60;99.90;;;;;;5072107;28;20091;-60
2021/10/13 12:11:04;;;;;;;15.02;8.43;;;13.10;99.90;;;;;;5082437;28;20053;-61
2021/10/13 12:13:31;;;;;;;17.48;8.93;;;13.30;99.90;;;;;;5087875;28;20028;-59
2021/10/13 12:16:02;;;;;;;100.47;42.95;;;13.40;99.90;;;;;;5081852;28;20028;-60
2021/10/13 12:18:32;;;;;;;251.45;117.47;;;13.50;99.90;;;;;;5079297;28;20023;-60
2021/10/13 12:21:01;;;;;;;30.73;15.95;;;13.60;99.90;;;;;;5088075;28;20079;-60
2021/10/13 12:23:27;;;;;;;20.35;8.63;;;13.80;99.90;;;;;;5088429;28;20685;-59
2021/10/13 12:25:53;;;;;;;14.30;7.60;;;14.00;99.90;;;;;;5080167;28;20033;-61
2021/10/13 12:28:23;;;;;;;13.90;6.47;;;14.00;99.90;;;;;;5063378;28;20028;-59
2021/10/13 12:31:02;;;;;;;18.98;7.18;;;13.70;99.90;;;;;;5072379;28;20150;-61
2021/10/13 12:33:38;;;;;;;13.50;6.32;;;13.50;99.90;;;;;;5085648;28;20040;-59
2021/10/13 12:36:12;;;;;;;14.40;6.40;;;13.40;99.90;;;;;;5079933;28;20070;-60
2021/10/13 12:38:43;;;;;;;15.88;7.10;;;13.30;99.90;;;;;;5087906;28;20066;-61
2021/10/13 12:41:10;;;;;;;13.52;6.20;;;13.20;99.90;;;;;;5075789;28;20047;-60
2021/10/13 12:43:47;;;;;;;24.75;6.72;;;13.10;99.90;;;;;;5084018;28;20106;-61
2021/10/13 12:46:22;;;;;;;16.83;6.50;;;12.90;99.90;;;;;;5087043;28;20510;-61